createdAt,value
2022-10-08T00:01:15.502Z,57.74
2022-10-08T00:03:44.762Z,58.99
2022-10-08T00:06:20.079Z,59.45
2022-10-08T00:08:52.255Z,59.52
2022-10-08T00:11:25.054Z,59.32
2022-10-08T00:13:53.551Z,59.20
2022-10-08T00:16:20.164Z,58.94
2022-10-08T00:18:48.585Z,58.53
2022-10-08T00:21:20.761Z,58.02
2022-10-08T00:23:49.189Z,58.63
2022-10-08T00:26:18.786Z,59.39
2022-10-08T00:28:47.099Z,59.05
2022-10-08T00:31:20.294Z,57.45
2022-10-08T00:33:51.706Z,57.44
2022-10-08T00:36:18.691Z,56.83
2022-10-08T00:38:45.343Z,57.59
2022-10-08T00:41:21.655Z,58.97
2022-10-08T00:43:51.794Z,58.73
2022-10-08T00:46:37.330Z,57.29
2022-10-08T00:49:19.497Z,57.63
2022-10-08T00:51:54.166Z,57.83
2022-10-08T00:54:23.050Z,57.87
2022-10-08T00:56:53.533Z,58.33
2022-10-08T00:59:21.132Z,58.06
2022-10-08T01:01:48.019Z,58.61
2022-10-08T01:04:15.815Z,59.40
2022-10-08T01:07:08.694Z,58.96
2022-10-08T01:09:45.630Z,59.55
2022-10-08T01:12:38.156Z,60.21
2022-10-08T01:15:23.455Z,59.74
2022-10-08T01:17:55.611Z,58.63
2022-10-08T01:20:37.572Z,59.95
2022-10-08T01:23:19.376Z,61.28
2022-10-08T01:25:52.290Z,62.02
2022-10-08T01:28:37.376Z,60.51
2022-10-08T01:31:15.813Z,60.64
2022-10-08T01:33:48.264Z,60.68
2022-10-08T01:36:18.616Z,60.24
2022-10-08T01:38:52.158Z,60.00
2022-10-08T01:41:21.299Z,60.41
2022-10-08T01:43:59.387Z,60.70
2022-10-08T01:46:29.685Z,62.03
2022-10-08T01:49:07.514Z,61.54
2022-10-08T01:51:44.315Z,62.69
2022-10-08T01:54:15.562Z,64.23
2022-10-08T01:56:46.015Z,64.15
2022-10-08T01:59:23.055Z,65.25
2022-10-08T02:01:58.969Z,66.11
2022-10-08T02:04:33.579Z,65.46
2022-10-08T02:07:05.793Z,65.66
2022-10-08T02:09:35.408Z,65.68
2022-10-08T02:12:02.761Z,63.37
2022-10-08T02:14:31.837Z,62.35
2022-10-08T02:17:08.148Z,61.88
2022-10-08T02:19:59.406Z,62.21
2022-10-08T02:22:40.390Z,61.92
2022-10-08T02:25:16.778Z,61.77
2022-10-08T02:27:55.492Z,61.34
2022-10-08T02:30:23.477Z,61.36
2022-10-08T02:33:08.554Z,60.61
2022-10-08T02:35:44.433Z,61.45
2022-10-08T02:38:16.511Z,62.01
2022-10-08T02:40:47.373Z,64.53
2022-10-08T02:43:20.447Z,64.20
2022-10-08T02:46:04.274Z,65.23
2022-10-08T02:48:33.369Z,64.37
2022-10-08T02:51:06.506Z,66.32
2022-10-08T02:53:38.171Z,64.92
2022-10-08T02:56:13.830Z,65.68
2022-10-08T02:58:42.672Z,66.25
2022-10-08T03:01:17.584Z,65.66
2022-10-08T03:03:55.160Z,64.57
2022-10-08T03:06:23.233Z,64.55
2022-10-08T03:08:50.634Z,65.37
2022-10-08T03:11:17.455Z,65.08
2022-10-08T03:13:48.271Z,64.41
2022-10-08T03:16:23.902Z,65.56
2022-10-08T03:18:52.213Z,65.42
2022-10-08T03:21:19.288Z,65.51
2022-10-08T03:23:45.991Z,64.73
2022-10-08T03:26:12.633Z,65.38
2022-10-08T03:28:39.339Z,64.08
2022-10-08T03:31:06.715Z,64.04
2022-10-08T03:33:33.864Z,63.90
2022-10-08T03:36:00.657Z,63.00
2022-10-08T03:38:28.097Z,64.35
2022-10-08T03:40:57.762Z,64.02
2022-10-08T03:43:25.103Z,63.63
2022-10-08T03:45:53.307Z,64.02
2022-10-08T03:48:21.739Z,63.82
2022-10-08T03:50:55.880Z,63.52
2022-10-08T03:53:23.123Z,63.97
2022-10-08T03:55:49.951Z,63.50
2022-10-08T03:58:17.119Z,63.95
2022-10-08T04:00:43.698Z,64.92
2022-10-08T04:03:10.617Z,65.20
2022-10-08T04:05:37.212Z,63.92
2022-10-08T04:08:03.863Z,63.48
2022-10-08T04:10:30.411Z,64.79
2022-10-08T04:12:57.119Z,64.83
2022-10-08T04:15:23.696Z,63.87
2022-10-08T04:17:50.323Z,62.71
2022-10-08T04:20:16.953Z,64.14
2022-10-08T04:22:43.744Z,63.38
2022-10-08T04:25:10.444Z,63.42
2022-10-08T04:27:37.070Z,63.82
2022-10-08T04:30:04.510Z,63.06
2022-10-08T04:32:31.038Z,63.20
2022-10-08T04:34:57.643Z,64.41
2022-10-08T04:37:24.440Z,63.76
2022-10-08T04:39:51.076Z,64.36
2022-10-08T04:42:17.756Z,63.72
2022-10-08T04:44:44.345Z,64.31
2022-10-08T04:47:10.937Z,63.72
2022-10-08T04:49:37.528Z,63.94
2022-10-08T04:52:04.203Z,62.99
2022-10-08T04:54:30.832Z,64.35
2022-10-08T04:56:57.499Z,65.66
2022-10-08T04:59:24.190Z,64.82
2022-10-08T05:01:52.833Z,63.93
2022-10-08T05:04:19.512Z,63.99
2022-10-08T05:06:46.169Z,63.07
2022-10-08T05:09:12.748Z,63.69
2022-10-08T05:11:39.541Z,64.02
2022-10-08T05:14:06.264Z,63.91
2022-10-08T05:16:32.910Z,64.82
2022-10-08T05:18:59.670Z,64.10
2022-10-08T05:21:29.235Z,63.91
2022-10-08T05:24:08.219Z,63.10
2022-10-08T05:29:24.230Z,62.70
2022-10-08T05:31:50.829Z,63.56
2022-10-08T05:34:17.422Z,62.38
2022-10-08T05:36:44.067Z,62.33
2022-10-08T05:39:11.111Z,62.49
2022-10-08T05:41:37.923Z,62.67
2022-10-08T05:44:06.067Z,62.16
2022-10-08T05:46:34.636Z,61.87
2022-10-08T05:49:02.798Z,62.00
2022-10-08T05:51:30.377Z,62.58
2022-10-08T05:53:58.419Z,62.01
2022-10-08T05:56:26.946Z,62.49
2022-10-08T05:58:54.368Z,62.42
2022-10-08T06:01:28.070Z,62.45
2022-10-08T06:03:57.736Z,62.93
2022-10-08T06:06:25.440Z,63.07
2022-10-08T06:08:59.691Z,62.99
2022-10-08T06:11:27.586Z,62.80
2022-10-08T06:13:55.589Z,62.40
2022-10-08T06:16:22.642Z,63.43
2022-10-08T06:18:49.553Z,62.20
2022-10-08T06:21:19.551Z,63.55
2022-10-08T06:23:48.494Z,62.50
2022-10-08T06:26:15.488Z,61.82
2022-10-08T06:28:42.133Z,61.85
2022-10-08T06:31:08.878Z,62.26
2022-10-08T06:33:35.810Z,62.11
2022-10-08T06:36:07.252Z,61.98
2022-10-08T06:38:34.152Z,61.38
2022-10-08T06:41:01.196Z,61.57
2022-10-08T06:43:27.984Z,61.28
2022-10-08T06:45:56.542Z,62.11
2022-10-08T06:48:23.699Z,61.50
2022-10-08T06:50:58.660Z,60.96
2022-10-08T06:53:25.309Z,62.14
2022-10-08T06:55:59.389Z,61.46
2022-10-08T06:58:26.335Z,62.38
2022-10-08T07:01:07.944Z,61.51
2022-10-08T07:03:35.775Z,61.77
2022-10-08T07:06:07.547Z,62.13
2022-10-08T07:08:36.155Z,61.35
2022-10-08T07:11:17.031Z,62.54
2022-10-08T07:13:44.649Z,61.95
2022-10-08T07:16:14.743Z,60.99
2022-10-08T07:18:46.388Z,62.51
2022-10-08T07:21:14.535Z,62.06
2022-10-08T07:23:41.453Z,62.62
2022-10-08T07:26:12.626Z,63.07
2022-10-08T07:28:42.660Z,63.11
2022-10-08T07:31:19.671Z,62.11
2022-10-08T07:33:46.372Z,62.45
2022-10-08T07:36:15.279Z,62.81
2022-10-08T07:38:42.590Z,63.00
2022-10-08T07:41:10.878Z,63.10
2022-10-08T07:43:41.175Z,63.38
2022-10-08T07:46:09.063Z,62.86
2022-10-08T07:48:36.261Z,63.46
2022-10-08T07:51:08.627Z,63.68
2022-10-08T07:53:35.844Z,63.65
2022-10-08T07:56:03.200Z,63.33
2022-10-08T07:58:29.785Z,62.29
2022-10-08T08:00:58.139Z,63.61
2022-10-08T08:03:25.551Z,63.79
2022-10-08T08:05:54.087Z,63.40
2022-10-08T08:08:24.894Z,63.91
2022-10-08T08:10:59.378Z,63.56
2022-10-08T08:13:26.450Z,63.06
2022-10-08T08:16:00.252Z,64.55
2022-10-08T08:18:32.491Z,63.83
2022-10-08T08:21:00.758Z,63.75
2022-10-08T08:23:36.254Z,64.09
2022-10-08T08:26:04.843Z,63.41
2022-10-08T08:28:31.526Z,63.83
2022-10-08T08:31:17.206Z,63.46
2022-10-08T08:33:48.583Z,64.19
2022-10-08T08:36:15.201Z,64.17
2022-10-08T08:38:41.800Z,63.97
2022-10-08T08:41:37.217Z,64.28
2022-10-08T08:44:11.582Z,64.15
2022-10-08T08:46:42.148Z,64.53
2022-10-08T08:49:47.304Z,65.36
2022-10-08T08:52:17.871Z,65.65
2022-10-08T08:54:49.676Z,65.41
2022-10-08T08:57:37.066Z,65.52
2022-10-08T09:00:25.095Z,64.53
2022-10-08T09:02:58.681Z,65.05
2022-10-08T09:05:30.012Z,63.68
2022-10-08T09:08:06.600Z,63.67
2022-10-08T09:10:42.555Z,64.20
2022-10-08T09:13:17.726Z,65.69
2022-10-08T09:15:46.318Z,65.44
2022-10-08T09:18:15.516Z,65.29
2022-10-08T09:20:43.295Z,65.04
2022-10-08T09:23:28.060Z,65.39
2022-10-08T09:26:00.587Z,65.97
2022-10-08T09:28:43.212Z,65.32
2022-10-08T09:31:27.140Z,65.59
2022-10-08T09:34:01.093Z,65.38
2022-10-08T09:36:41.264Z,65.32
2022-10-08T09:39:21.543Z,64.89
2022-10-08T09:42:07.199Z,64.50
2022-10-08T09:44:59.311Z,64.40
2022-10-08T09:47:27.261Z,63.64
2022-10-08T09:50:07.543Z,63.36
2022-10-08T09:52:36.396Z,64.91
2022-10-08T09:55:16.225Z,63.66
2022-10-08T09:57:45.975Z,63.64
2022-10-08T10:00:26.226Z,64.09
2022-10-08T10:02:55.724Z,63.04
2022-10-08T10:05:28.527Z,62.02
2022-10-08T10:07:55.621Z,61.02
2022-10-08T10:10:25.952Z,61.00
2022-10-08T10:13:05.159Z,58.84
2022-10-08T10:15:39.144Z,58.71
2022-10-08T10:18:14.062Z,58.95
2022-10-08T10:20:45.796Z,58.63
2022-10-08T10:23:17.142Z,59.79
2022-10-08T10:25:58.028Z,59.25
2022-10-08T10:28:38.729Z,59.43
2022-10-08T10:31:13.751Z,59.50
2022-10-08T10:34:13.544Z,58.84
2022-10-08T10:36:49.307Z,58.12
2022-10-08T10:39:46.490Z,56.16
2022-10-08T10:42:26.470Z,56.26
2022-10-08T10:45:15.192Z,55.34
2022-10-08T10:47:41.713Z,54.53
2022-10-08T10:50:16.418Z,54.97
2022-10-08T10:52:43.000Z,54.67
2022-10-08T10:55:24.677Z,53.88
2022-10-08T10:58:06.560Z,51.68
2022-10-08T11:00:38.973Z,50.51
2022-10-08T11:03:51.319Z,48.73
2022-10-08T11:06:31.188Z,49.78
2022-10-08T11:09:21.866Z,48.73
2022-10-08T11:12:21.686Z,50.81
2022-10-08T11:15:16.077Z,51.06
2022-10-08T11:18:09.464Z,48.29
2022-10-08T11:20:46.836Z,46.48
2022-10-08T11:23:31.878Z,45.73
2022-10-08T11:26:21.872Z,48.24
2022-10-08T11:29:00.594Z,50.03
2022-10-08T11:31:39.244Z,49.68
2022-10-08T11:34:18.207Z,49.45
2022-10-08T11:36:50.623Z,50.53
2022-10-08T11:39:21.885Z,52.32
2022-10-08T11:41:59.809Z,53.07
2022-10-08T11:44:27.107Z,53.21
2022-10-08T11:46:53.675Z,52.96
2022-10-08T11:49:20.238Z,53.65
2022-10-08T11:51:50.025Z,52.98
2022-10-08T11:54:23.379Z,54.06
2022-10-08T11:57:09.941Z,54.70
2022-10-08T11:59:39.685Z,53.49
2022-10-08T12:02:19.643Z,53.27
2022-10-08T12:04:48.932Z,53.65
2022-10-08T12:07:19.134Z,52.44
2022-10-08T12:10:07.609Z,50.82
2022-10-08T12:12:49.576Z,50.60
2022-10-08T12:15:25.424Z,50.78
2022-10-08T12:17:53.499Z,50.69
2022-10-08T12:20:27.523Z,51.21
2022-10-08T12:23:03.957Z,50.46
2022-10-08T12:25:44.172Z,49.63
2022-10-08T12:28:19.964Z,50.29
2022-10-08T12:30:49.401Z,50.41
2022-10-08T12:33:16.868Z,50.34
2022-10-08T12:36:05.428Z,49.95
2022-10-08T12:38:57.809Z,50.30
2022-10-08T12:41:34.391Z,51.38
2022-10-08T12:44:06.730Z,51.43
2022-10-08T12:46:58.134Z,51.29
2022-10-08T12:49:52.268Z,55.64
2022-10-08T12:52:21.047Z,63.75
2022-10-08T12:54:56.675Z,66.17
2022-10-08T12:57:30.376Z,66.76
2022-10-08T13:00:19.746Z,67.93
2022-10-08T13:02:59.883Z,66.22
2022-10-08T13:05:33.260Z,66.19
2022-10-08T13:08:19.941Z,66.37
2022-10-08T13:10:46.620Z,67.34
2022-10-08T13:13:31.799Z,65.08
2022-10-08T13:16:00.388Z,64.86
2022-10-08T13:18:29.253Z,64.71
2022-10-08T13:21:01.897Z,65.25
2022-10-08T13:23:42.496Z,64.89
2022-10-08T13:26:50.519Z,63.93
2022-10-08T13:29:33.939Z,64.15
2022-10-08T13:32:05.292Z,63.71
2022-10-08T13:34:37.641Z,63.97
2022-10-08T13:37:07.625Z,63.23
2022-10-08T13:39:39.943Z,63.50
2022-10-08T13:42:16.107Z,62.76
2022-10-08T13:44:43.332Z,62.69
2022-10-08T13:47:19.121Z,63.04
2022-10-08T13:49:46.301Z,62.36
2022-10-08T13:52:21.510Z,62.02
2022-10-08T13:54:51.514Z,62.24
2022-10-08T13:57:18.132Z,61.50
2022-10-08T13:59:44.847Z,62.39
2022-10-08T14:02:14.310Z,62.07
2022-10-08T14:04:41.045Z,61.71
2022-10-08T14:07:16.191Z,61.24
2022-10-08T14:09:42.832Z,62.64
2022-10-08T14:12:09.851Z,62.33
2022-10-08T14:14:36.818Z,62.59
2022-10-08T14:17:03.444Z,63.08
2022-10-08T14:19:30.077Z,62.48
2022-10-08T14:21:57.155Z,62.75
2022-10-08T14:24:23.784Z,61.64
2022-10-08T14:26:50.398Z,61.83
2022-10-08T14:29:17.079Z,62.07
2022-10-08T14:31:43.732Z,62.01
2022-10-08T14:34:10.411Z,62.20
2022-10-08T14:36:39.984Z,61.37
2022-10-08T14:39:06.825Z,61.30
2022-10-08T14:41:33.448Z,61.46
2022-10-08T14:44:00.215Z,62.20
2022-10-08T14:46:26.824Z,62.79
2022-10-08T14:48:53.580Z,64.33
2022-10-08T14:51:20.815Z,63.36
2022-10-08T14:53:47.453Z,62.18
2022-10-08T14:56:14.032Z,62.13
2022-10-08T14:58:40.774Z,61.74
2022-10-08T15:01:07.430Z,61.43
2022-10-08T15:03:34.520Z,62.04
2022-10-08T15:06:01.687Z,61.11
2022-10-08T15:08:28.486Z,61.58
2022-10-08T15:10:55.107Z,62.08
2022-10-08T15:13:21.868Z,61.84
2022-10-08T15:15:48.574Z,62.35
2022-10-08T15:18:15.197Z,63.07
2022-10-08T15:20:41.888Z,63.24
2022-10-08T15:23:10.374Z,63.41
2022-10-08T15:25:37.194Z,62.87
2022-10-08T15:28:04.338Z,62.86
2022-10-08T15:30:30.944Z,61.59
2022-10-08T15:33:02.593Z,61.90
2022-10-08T15:35:29.678Z,62.31
2022-10-08T15:37:56.219Z,62.77
2022-10-08T15:40:22.821Z,63.23
2022-10-08T15:42:51.570Z,61.97
2022-10-08T15:45:18.194Z,60.31
2022-10-08T15:47:44.739Z,61.23
2022-10-08T15:50:11.456Z,60.93
2022-10-08T15:52:39.012Z,60.63
2022-10-08T15:55:07.947Z,60.11
2022-10-08T15:57:34.580Z,59.16
2022-10-08T16:00:01.218Z,57.76
2022-10-08T16:02:27.859Z,57.60
2022-10-08T16:04:54.594Z,57.56
2022-10-08T16:07:21.176Z,57.21
2022-10-08T16:09:47.870Z,58.04
2022-10-08T16:12:14.533Z,58.36
2022-10-08T16:14:41.155Z,58.66
2022-10-08T16:17:08.274Z,58.94
2022-10-08T16:19:35.011Z,58.67
2022-10-08T16:22:01.722Z,59.65
2022-10-08T16:24:28.420Z,60.03
2022-10-08T16:26:55.040Z,59.86
2022-10-08T16:29:21.722Z,59.51
2022-10-08T16:31:48.754Z,59.48
2022-10-08T16:34:18.641Z,60.40
2022-10-08T16:36:48.034Z,60.42
2022-10-08T16:39:18.255Z,60.59
2022-10-08T16:41:45.226Z,60.14
2022-10-08T16:44:14.813Z,60.08
2022-10-08T16:46:44.568Z,60.16
2022-10-08T16:49:24.473Z,60.07
2022-10-08T16:52:05.323Z,59.94
2022-10-08T16:54:32.810Z,60.39
2022-10-08T16:56:59.800Z,60.02
2022-10-08T16:59:28.153Z,60.31
2022-10-08T17:01:57.582Z,60.67
2022-10-08T17:04:26.418Z,61.23
2022-10-08T17:06:53.312Z,61.16
2022-10-08T17:09:20.720Z,61.24
2022-10-08T17:11:47.711Z,61.97
2022-10-08T17:14:14.395Z,62.17
2022-10-08T17:16:43.500Z,61.82
2022-10-08T17:19:10.530Z,61.98
2022-10-08T17:21:37.339Z,62.05
2022-10-08T17:24:04.144Z,62.75
2022-10-08T17:26:31.477Z,62.76
2022-10-08T17:29:05.747Z,62.69
2022-10-08T17:31:32.800Z,62.22
2022-10-08T17:34:00.724Z,61.62
2022-10-08T17:36:30.352Z,61.39
2022-10-08T17:38:59.165Z,62.07
2022-10-08T17:41:28.433Z,61.51
2022-10-08T17:43:56.120Z,61.35
2022-10-08T17:46:25.395Z,60.93
2022-10-08T17:48:52.556Z,60.60
2022-10-08T17:51:22.529Z,60.44
2022-10-08T17:53:54.011Z,61.92
2022-10-08T17:56:21.693Z,63.21
2022-10-08T17:58:48.435Z,62.31
2022-10-08T18:01:21.169Z,61.89
2022-10-08T18:03:56.562Z,62.29
2022-10-08T18:06:25.568Z,62.14
2022-10-08T18:08:56.524Z,62.29
2022-10-08T18:11:24.330Z,61.56
2022-10-08T18:13:51.255Z,61.62
2022-10-08T18:16:19.053Z,61.37
2022-10-08T18:18:46.834Z,61.26
2022-10-08T18:21:15.752Z,62.03
2022-10-08T18:23:43.077Z,61.59
2022-10-08T18:26:26.096Z,62.12
2022-10-08T18:28:59.406Z,62.16
2022-10-08T18:31:31.006Z,62.54
2022-10-08T18:34:06.307Z,62.69
2022-10-08T18:36:35.098Z,61.50
2022-10-08T18:39:10.257Z,61.44
2022-10-08T18:41:41.111Z,61.81
2022-10-08T18:44:10.872Z,61.37
2022-10-08T18:46:38.444Z,60.77
2022-10-08T18:49:06.195Z,60.32
2022-10-08T18:51:34.052Z,60.87
2022-10-08T18:54:02.222Z,60.77
2022-10-08T18:56:35.659Z,61.02
2022-10-08T18:59:06.708Z,61.50
2022-10-08T19:01:38.209Z,61.55
2022-10-08T19:04:07.887Z,61.16
2022-10-08T19:06:37.015Z,61.51
2022-10-08T19:09:05.236Z,60.92
2022-10-08T19:11:44.220Z,61.53
2022-10-08T19:14:13.884Z,61.15
2022-10-08T19:16:41.342Z,60.18
2022-10-08T19:19:24.455Z,60.74
2022-10-08T19:21:52.192Z,60.73
2022-10-08T19:24:22.160Z,60.61
2022-10-08T19:26:49.591Z,61.03
2022-10-08T19:29:19.141Z,60.79
2022-10-08T19:31:47.735Z,61.44
2022-10-08T19:34:17.033Z,61.13
2022-10-08T19:36:43.991Z,61.22
2022-10-08T19:39:13.628Z,60.94
2022-10-08T19:41:41.375Z,60.99
2022-10-08T19:44:08.842Z,61.70
2022-10-08T19:46:35.826Z,61.01
2022-10-08T19:49:04.615Z,61.32
2022-10-08T19:51:32.395Z,61.40
2022-10-08T19:54:00.563Z,61.68
2022-10-08T19:56:28.846Z,61.44
2022-10-08T19:58:55.835Z,61.47
2022-10-08T20:01:25.729Z,61.09
2022-10-08T20:03:54.956Z,60.83
2022-10-08T20:06:24.793Z,60.74
2022-10-08T20:08:58.035Z,60.88
2022-10-08T20:11:25.482Z,61.38
2022-10-08T20:13:53.528Z,60.75
2022-10-08T20:16:29.422Z,60.84
2022-10-08T20:19:06.392Z,60.61
2022-10-08T20:21:36.820Z,61.02
2022-10-08T20:24:03.868Z,60.83
2022-10-08T20:26:32.839Z,60.91
2022-10-08T20:29:01.840Z,61.08
2022-10-08T20:31:41.948Z,61.16
2022-10-08T20:34:12.575Z,61.02
2022-10-08T20:36:39.240Z,61.09
2022-10-08T20:39:06.465Z,61.27
2022-10-08T20:41:33.261Z,61.33
2022-10-08T20:44:02.772Z,60.73
2022-10-08T20:46:30.285Z,61.10
2022-10-08T20:48:57.288Z,61.06
2022-10-08T20:51:26.309Z,61.23
2022-10-08T20:53:55.280Z,61.19
2022-10-08T20:56:23.408Z,60.91
2022-10-08T20:58:50.692Z,61.69
2022-10-08T21:01:20.464Z,61.24
2022-10-08T21:03:47.787Z,61.83
2022-10-08T21:06:30.074Z,61.32
2022-10-08T21:08:57.958Z,61.43
2022-10-08T21:11:27.820Z,62.16
2022-10-08T21:13:55.327Z,62.36
2022-10-08T21:16:25.113Z,62.65
2022-10-08T21:18:54.554Z,62.24
2022-10-08T21:21:21.871Z,63.01
2022-10-08T21:23:49.126Z,63.33
2022-10-08T21:26:17.559Z,62.50
2022-10-08T21:28:46.876Z,63.46
2022-10-08T21:31:14.314Z,63.73
2022-10-08T21:33:42.138Z,62.62
2022-10-08T21:36:17.861Z,62.46
2022-10-08T21:38:44.816Z,62.54
2022-10-08T21:41:14.324Z,62.87
2022-10-08T21:43:42.107Z,63.17
2022-10-08T21:46:11.093Z,62.37
2022-10-08T21:48:38.429Z,62.79
2022-10-08T21:51:08.144Z,62.27
2022-10-08T21:53:37.001Z,62.92
2022-10-08T21:56:07.299Z,62.97
2022-10-08T21:58:39.949Z,64.26
2022-10-08T22:01:08.632Z,63.64
2022-10-08T22:03:35.341Z,64.01
2022-10-08T22:06:04.315Z,64.52
2022-10-08T22:08:31.570Z,65.10
2022-10-08T22:10:58.500Z,64.22
2022-10-08T22:13:25.170Z,64.02
2022-10-08T22:15:56.157Z,63.82
2022-10-08T22:18:24.439Z,63.98
2022-10-08T22:20:51.620Z,63.82
2022-10-08T22:23:18.873Z,64.33
2022-10-08T22:25:57.217Z,63.95
2022-10-08T22:28:24.830Z,63.37
2022-10-08T22:30:51.923Z,63.66
2022-10-08T22:33:19.031Z,64.49
2022-10-08T22:35:45.668Z,63.79
2022-10-08T22:38:12.729Z,64.13
2022-10-08T22:40:39.348Z,64.48
2022-10-08T22:43:06.660Z,65.33
2022-10-08T22:45:38.223Z,64.94
2022-10-08T22:48:05.756Z,64.18
2022-10-08T22:50:35.385Z,63.85
2022-10-08T22:53:02.340Z,64.13
2022-10-08T22:55:29.679Z,64.13
2022-10-08T22:57:56.572Z,64.22
2022-10-08T23:00:23.256Z,63.67
2022-10-08T23:02:50.328Z,64.72
2022-10-08T23:05:17.416Z,64.08
2022-10-08T23:07:44.025Z,63.90
2022-10-08T23:10:10.660Z,63.45
2022-10-08T23:12:37.296Z,63.93
2022-10-08T23:15:04.504Z,63.82
2022-10-08T23:17:31.165Z,63.63
2022-10-08T23:19:57.723Z,63.54
2022-10-08T23:22:25.139Z,63.78
2022-10-08T23:24:51.740Z,63.58
2022-10-08T23:27:18.357Z,63.45
2022-10-08T23:29:44.954Z,63.53
2022-10-08T23:32:11.637Z,63.65
2022-10-08T23:34:38.207Z,63.89
2022-10-08T23:37:04.859Z,64.30
2022-10-08T23:39:31.482Z,63.75
2022-10-08T23:41:58.118Z,63.36
2022-10-08T23:44:24.737Z,64.10
2022-10-08T23:46:51.575Z,64.01
2022-10-08T23:49:18.119Z,64.21
2022-10-08T23:51:44.776Z,63.53
2022-10-08T23:54:11.532Z,63.86
2022-10-08T23:56:38.447Z,63.52
2022-10-08T23:59:05.088Z,64.15
